createdAt,value
2022-10-02T00:26:44.477Z,18
2022-10-02T00:56:47.277Z,18
2022-10-02T01:26:46.595Z,16
2022-10-02T01:56:43.072Z,17
2022-10-02T02:26:44.780Z,18
2022-10-02T02:56:45.213Z,16
2022-10-02T03:26:45.868Z,17
2022-10-02T03:57:51.987Z,19
2022-10-02T04:27:44.598Z,17
2022-10-02T04:57:41.815Z,16
2022-10-02T05:27:39.906Z,18
2022-10-02T05:57:36.492Z,16
2022-10-02T06:27:37.009Z,18
2022-10-02T07:27:42.842Z,17
2022-10-02T07:57:47.134Z,64
2022-10-02T08:27:49.932Z,22
2022-10-02T08:57:52.833Z,17
2022-10-02T09:27:49.098Z,17
2022-10-02T09:57:52.700Z,17
2022-10-02T10:27:52.055Z,16
2022-10-02T10:57:50.855Z,25
2022-10-02T11:27:49.951Z,17
2022-10-02T11:57:50.131Z,17
2022-10-02T12:27:52.032Z,15
2022-10-02T12:57:44.780Z,20
2022-10-02T13:27:42.637Z,24
2022-10-02T13:57:45.367Z,60
2022-10-02T14:27:41.982Z,29
2022-10-02T14:57:42.121Z,27
2022-10-02T15:27:44.760Z,127
2022-10-02T15:57:45.167Z,154
2022-10-02T16:27:44.434Z,58
2022-10-02T16:57:36.522Z,56
2022-10-02T17:27:40.613Z,53
2022-10-02T17:57:36.833Z,48
2022-10-02T18:27:35.794Z,50
2022-10-02T18:57:36.975Z,53
2022-10-02T19:27:41.333Z,54
2022-10-02T19:57:39.695Z,54
2022-10-02T20:27:37.426Z,51
2022-10-02T20:57:36.000Z,47
2022-10-02T21:27:34.424Z,50
2022-10-02T21:57:37.636Z,46
2022-10-02T22:27:39.181Z,36
2022-10-02T22:57:34.749Z,37
2022-10-02T23:27:36.847Z,40
2022-10-02T23:57:35.984Z,42
